createdAt,value
2022-09-05T00:01:55.841Z,2.73
2022-09-05T00:04:47.594Z,2.77
2022-09-05T00:07:36.032Z,2.60
2022-09-05T00:10:37.344Z,2.10
2022-09-05T00:13:22.792Z,2.50
2022-09-05T00:16:21.583Z,2.40
2022-09-05T00:23:17.639Z,2.60
2022-09-05T00:24:35.462Z,2.13
2022-09-05T00:26:03.325Z,2.60
2022-09-05T00:28:44.030Z,3.30
2022-09-05T00:31:54.304Z,2.80
2022-09-05T00:34:47.806Z,2.27
2022-09-05T00:37:34.888Z,3.27
2022-09-05T00:40:17.924Z,3.30
2022-09-05T00:42:53.969Z,2.53
2022-09-05T00:45:48.271Z,2.30
2022-09-05T00:48:51.464Z,2.30
2022-09-05T00:51:46.971Z,2.57
2022-09-05T00:54:51.749Z,2.93
2022-09-05T00:57:18.494Z,2.93
2022-09-05T01:00:06.107Z,2.90
2022-09-05T01:03:10.125Z,2.77
2022-09-05T01:06:15.306Z,2.60
2022-09-05T01:09:32.648Z,2.20
2022-09-05T01:12:13.885Z,3.33
2022-09-05T01:15:22.420Z,2.70
2022-09-05T01:18:00.579Z,3.20
2022-09-05T01:20:49.654Z,2.90
2022-09-05T01:23:28.607Z,2.60
2022-09-05T01:26:20.770Z,2.80
2022-09-05T01:29:16.373Z,2.80
2022-09-05T01:32:04.587Z,3.10
2022-09-05T01:34:54.455Z,3.07
2022-09-05T01:38:06.753Z,2.60
2022-09-05T01:40:43.578Z,2.60
2022-09-05T01:43:27.984Z,2.83
2022-09-05T01:46:09.005Z,3.00
2022-09-05T01:48:53.612Z,2.93
2022-09-05T01:51:28.978Z,3.43
2022-09-05T01:54:25.730Z,4.63
2022-09-05T01:57:13.588Z,3.10
2022-09-05T01:59:58.182Z,2.80
2022-09-05T02:02:50.216Z,3.10
2022-09-05T02:05:48.315Z,2.80
2022-09-05T02:08:15.973Z,3.57
2022-09-05T02:10:47.548Z,3.70
2022-09-05T02:13:17.323Z,3.10
2022-09-05T02:15:59.806Z,2.60
2022-09-05T02:18:54.251Z,2.83
2022-09-05T02:21:33.449Z,3.00
2022-09-05T02:24:28.039Z,3.10
2022-09-05T02:27:03.966Z,2.83
2022-09-05T02:29:55.760Z,2.63
2022-09-05T02:32:45.932Z,3.33
2022-09-05T02:35:30.247Z,2.67
2022-09-05T02:40:26.255Z,3.33
2022-09-05T02:45:09.514Z,3.00
2022-09-05T02:45:17.492Z,3.00
2022-09-05T02:47:01.173Z,2.70
2022-09-05T02:52:03.847Z,3.10
2022-09-05T02:57:25.344Z,3.20
2022-09-05T02:57:36.374Z,2.77
2022-09-05T02:58:24.141Z,3.03
2022-09-05T03:01:21.098Z,2.97
2022-09-05T03:04:18.212Z,3.13
2022-09-05T03:07:01.320Z,3.20
2022-09-05T03:10:05.335Z,2.50
2022-09-05T03:13:02.616Z,2.83
2022-09-05T03:15:44.267Z,2.70
2022-09-05T03:18:26.089Z,3.23
2022-09-05T03:21:24.821Z,2.83
2022-09-05T03:24:22.948Z,3.13
2022-09-05T03:27:29.370Z,2.60
2022-09-05T03:30:06.301Z,3.20
2022-09-05T03:33:05.831Z,2.77
2022-09-05T03:35:54.363Z,2.73
2022-09-05T03:39:04.469Z,3.30
2022-09-05T03:42:14.669Z,2.90
2022-09-05T03:45:36.376Z,2.80
2022-09-05T03:48:27.922Z,2.83
2022-09-05T03:56:01.316Z,2.30
2022-09-05T03:57:23.882Z,2.73
2022-09-05T03:57:32.236Z,2.37
2022-09-05T04:00:08.627Z,2.67
2022-09-05T04:08:13.499Z,2.83
2022-09-05T04:08:18.450Z,3.17
2022-09-05T04:08:46.158Z,2.50
2022-09-05T04:11:32.146Z,3.40
2022-09-05T04:14:21.046Z,2.70
2022-09-05T04:16:56.256Z,2.70
2022-09-05T04:19:41.510Z,3.00
2022-09-05T04:22:32.108Z,2.57
2022-09-05T04:25:42.861Z,2.37
2022-09-05T04:28:31.613Z,2.60
2022-09-05T04:31:03.009Z,2.37
2022-09-05T04:33:43.229Z,2.87
2022-09-05T04:36:20.988Z,2.20
2022-09-05T04:39:07.037Z,2.30
2022-09-05T04:41:40.210Z,2.60
2022-09-05T04:44:42.907Z,2.77
2022-09-05T04:47:27.568Z,2.33
2022-09-05T04:50:06.783Z,1.83
2022-09-05T04:52:52.224Z,2.50
2022-09-05T04:55:51.874Z,2.37
2022-09-05T04:59:22.318Z,2.07
2022-09-05T05:06:04.051Z,2.10
2022-09-05T05:06:10.664Z,2.10
2022-09-05T05:07:51.801Z,2.63
2022-09-05T05:14:44.459Z,2.60
2022-09-05T05:18:08.473Z,2.33
2022-09-05T05:18:12.507Z,2.40
2022-09-05T05:20:42.644Z,2.10
2022-09-05T05:23:14.551Z,2.70
2022-09-05T05:25:49.748Z,2.33
2022-09-05T05:28:37.748Z,2.40
2022-09-05T05:31:16.875Z,1.93
2022-09-05T05:33:49.208Z,2.30
2022-09-05T05:36:39.488Z,2.20
2022-09-05T05:39:24.755Z,2.60
2022-09-05T05:42:05.316Z,1.90
2022-09-05T05:44:53.908Z,2.10
2022-09-05T05:47:35.023Z,2.30
2022-09-05T05:50:35.187Z,2.43
2022-09-05T05:53:43.606Z,2.50
2022-09-05T05:56:32.698Z,2.33
2022-09-05T05:59:14.059Z,2.43
2022-09-05T06:02:02.589Z,2.43
2022-09-05T06:04:44.738Z,2.57
2022-09-05T06:08:30.530Z,1.60
2022-09-05T06:14:49.361Z,2.40
2022-09-05T06:14:57.126Z,2.13
2022-09-05T06:17:09.523Z,2.57
2022-09-05T06:22:04.547Z,2.17
2022-09-05T06:23:39.590Z,2.03
2022-09-05T06:26:45.715Z,2.10
2022-09-05T06:29:25.327Z,1.73
2022-09-05T06:32:33.565Z,2.00
2022-09-05T06:35:24.651Z,2.17
2022-09-05T06:38:07.573Z,2.60
2022-09-05T06:40:37.977Z,2.23
2022-09-05T06:43:40.241Z,1.97
2022-09-05T06:46:55.479Z,2.50
2022-09-05T06:49:30.885Z,2.30
2022-09-05T06:52:40.898Z,2.37
2022-09-05T06:55:38.412Z,2.03
2022-09-05T06:58:32.600Z,2.97
2022-09-05T07:01:01.257Z,2.40
2022-09-05T07:03:52.231Z,2.30
2022-09-05T07:07:01.905Z,2.40
2022-09-05T07:09:52.088Z,2.40
2022-09-05T07:12:45.058Z,2.17
2022-09-05T07:15:12.147Z,1.80
2022-09-05T07:18:13.477Z,2.40
2022-09-05T07:21:17.370Z,2.33
2022-09-05T07:24:09.143Z,1.90
2022-09-05T07:26:53.973Z,2.30
2022-09-05T07:29:37.592Z,2.53
2022-09-05T07:32:08.692Z,2.33
2022-09-05T07:34:37.694Z,2.13
2022-09-05T07:37:15.133Z,2.70
2022-09-05T07:39:58.340Z,2.30
2022-09-05T07:42:49.954Z,2.93
2022-09-05T07:45:55.560Z,2.37
2022-09-05T07:48:34.790Z,2.97
2022-09-05T07:54:06.106Z,2.30
2022-09-05T07:56:52.882Z,2.33
2022-09-05T08:00:25.613Z,2.20
2022-09-05T08:02:55.338Z,2.20
2022-09-05T08:05:34.429Z,2.70
2022-09-05T08:08:05.500Z,2.77
2022-09-05T08:11:22.090Z,2.20
2022-09-05T08:13:42.568Z,2.37
2022-09-05T08:16:20.740Z,2.30
2022-09-05T08:19:09.876Z,2.30
2022-09-05T08:21:50.737Z,2.67
2022-09-05T08:24:29.122Z,2.43
2022-09-05T08:27:16.060Z,2.70
2022-09-05T08:30:24.856Z,2.57
2022-09-05T08:32:57.582Z,2.67
2022-09-05T08:36:01.157Z,2.80
2022-09-05T08:38:38.731Z,2.13
2022-09-05T08:41:23.641Z,2.63
2022-09-05T08:46:43.162Z,2.30
2022-09-05T08:47:12.489Z,2.40
2022-09-05T08:49:55.745Z,2.33
2022-09-05T08:52:52.663Z,2.40
2022-09-05T08:55:39.886Z,2.57
2022-09-05T08:58:33.922Z,2.37
2022-09-05T09:01:13.270Z,2.10
2022-09-05T09:03:52.498Z,2.40
2022-09-05T09:06:35.962Z,2.37
2022-09-05T09:09:21.342Z,2.50
2022-09-05T09:12:12.852Z,1.93
2022-09-05T09:14:45.956Z,2.13
2022-09-05T09:17:31.340Z,2.40
2022-09-05T09:20:06.927Z,2.40
2022-09-05T09:22:41.533Z,2.97
2022-09-05T09:25:15.073Z,2.67
2022-09-05T09:28:47.636Z,2.20
2022-09-05T09:31:26.628Z,2.03
2022-09-05T09:34:06.981Z,2.23
2022-09-05T09:37:09.725Z,2.50
2022-09-05T09:40:09.080Z,2.80
2022-09-05T09:42:50.913Z,2.20
2022-09-05T09:45:29.839Z,2.03
2022-09-05T09:48:16.473Z,2.03
2022-09-05T09:51:12.250Z,2.57
2022-09-05T09:54:05.493Z,2.77
2022-09-05T09:56:57.486Z,2.03
2022-09-05T09:59:24.289Z,2.80
2022-09-05T10:10:04.377Z,2.10
2022-09-05T10:10:37.878Z,2.10
2022-09-05T10:10:45.544Z,1.97
2022-09-05T10:14:45.088Z,2.00
2022-09-05T10:17:32.134Z,2.10
2022-09-05T10:20:15.216Z,2.50
2022-09-05T10:22:57.156Z,2.03
2022-09-05T10:25:45.723Z,2.30
2022-09-05T10:28:31.187Z,2.40
2022-09-05T10:33:11.862Z,2.50
2022-09-05T10:35:16.251Z,2.03
2022-09-05T10:37:13.141Z,2.93
2022-09-05T10:39:46.993Z,2.20
2022-09-05T10:42:58.127Z,1.90
2022-09-05T10:45:55.666Z,2.30
2022-09-05T10:48:38.783Z,2.13
2022-09-05T10:51:27.863Z,1.80
2022-09-05T10:54:32.170Z,2.90
2022-09-05T10:57:13.368Z,1.97
2022-09-05T11:02:21.956Z,2.83
2022-09-05T11:02:58.198Z,2.33
2022-09-05T11:05:36.401Z,2.07
2022-09-05T11:08:11.708Z,2.13
2022-09-05T11:11:11.268Z,2.30
2022-09-05T11:13:58.789Z,2.20
2022-09-05T11:16:44.681Z,1.80
2022-09-05T11:19:26.336Z,2.43
2022-09-05T11:22:06.496Z,1.90
2022-09-05T11:25:00.113Z,2.13
2022-09-05T11:27:40.108Z,1.83
2022-09-05T11:30:07.790Z,1.73
2022-09-05T11:39:46.222Z,1.90
2022-09-05T11:39:53.892Z,2.10
2022-09-05T11:40:25.000Z,1.93
2022-09-05T11:42:43.296Z,2.10
2022-09-05T11:46:00.917Z,2.20
2022-09-05T11:48:53.725Z,1.90
2022-09-05T11:51:44.895Z,1.80
2022-09-05T11:54:48.998Z,2.73
2022-09-05T11:57:42.955Z,1.97
2022-09-05T12:00:35.332Z,2.20
2022-09-05T12:04:01.098Z,2.30
2022-09-05T12:07:15.603Z,2.07
2022-09-05T12:10:02.573Z,2.10
2022-09-05T12:12:38.955Z,2.50
2022-09-05T12:15:27.527Z,1.90
2022-09-05T12:18:19.392Z,2.00
2022-09-05T12:21:01.118Z,2.03
2022-09-05T12:24:07.778Z,2.53
2022-09-05T12:27:42.930Z,1.80
2022-09-05T12:30:13.973Z,2.57
2022-09-05T12:36:06.336Z,2.40
2022-09-05T12:39:56.044Z,2.13
2022-09-05T12:40:55.129Z,2.10
2022-09-05T12:43:01.771Z,2.00
2022-09-05T12:45:50.411Z,1.90
2022-09-05T12:48:39.088Z,2.20
2022-09-05T12:51:18.065Z,2.10
2022-09-05T12:54:03.907Z,1.90
2022-09-05T13:00:41.120Z,1.90
2022-09-05T13:03:02.329Z,1.97
2022-09-05T13:03:28.383Z,1.87
2022-09-05T13:06:17.106Z,2.30
2022-09-05T13:08:59.679Z,2.00
2022-09-05T13:14:49.744Z,1.80
2022-09-05T13:14:59.082Z,2.00
2022-09-05T13:17:15.600Z,2.03
2022-09-05T13:19:51.439Z,1.60
2022-09-05T13:22:23.341Z,1.67
2022-09-05T13:25:16.630Z,1.60
2022-09-05T13:27:56.667Z,1.40
2022-09-05T13:35:30.052Z,1.35
2022-09-05T13:38:15.621Z,1.05
2022-09-05T13:38:30.739Z,1.27
2022-09-05T13:39:13.145Z,1.80
2022-09-05T13:41:59.676Z,1.48
2022-09-05T13:44:33.635Z,1.30
2022-09-05T13:47:29.546Z,1.30
2022-09-05T13:50:13.557Z,1.10
2022-09-05T13:52:53.041Z,1.35
2022-09-05T13:55:27.413Z,1.35
2022-09-05T13:57:56.567Z,1.67
2022-09-05T14:00:38.068Z,1.05
2022-09-05T14:06:45.728Z,1.25
2022-09-05T14:09:41.613Z,1.38
2022-09-05T14:12:29.507Z,1.33
2022-09-05T14:15:13.731Z,1.30
2022-09-05T14:18:19.993Z,1.50
2022-09-05T14:21:26.939Z,1.20
2022-09-05T14:23:56.625Z,1.38
2022-09-05T14:26:46.045Z,1.20
2022-09-05T14:29:55.244Z,1.10
2022-09-05T14:37:41.385Z,1.15
2022-09-05T14:37:42.125Z,1.40
2022-09-05T14:38:39.461Z,1.27
2022-09-05T14:41:28.285Z,1.38
2022-09-05T14:44:01.295Z,1.42
2022-09-05T14:46:39.818Z,1.60
2022-09-05T14:49:25.703Z,1.88
2022-09-05T14:51:58.481Z,2.00
2022-09-05T15:02:58.504Z,2.07
2022-09-05T15:02:58.669Z,2.60
2022-09-05T15:03:12.491Z,2.50
2022-09-05T15:05:50.082Z,2.73
2022-09-05T15:10:09.136Z,2.63
2022-09-05T15:12:16.217Z,2.30
2022-09-05T15:14:06.633Z,2.60
2022-09-05T15:16:43.585Z,2.37
2022-09-05T15:19:11.237Z,2.40
2022-09-05T15:21:42.815Z,2.43
2022-09-05T15:24:32.413Z,1.93
2022-09-05T15:27:01.779Z,2.47
2022-09-05T15:29:35.607Z,2.27
2022-09-05T15:32:38.103Z,3.10
2022-09-05T15:35:06.189Z,2.90
2022-09-05T15:37:36.898Z,2.73
2022-09-05T15:40:23.090Z,2.57
2022-09-05T15:43:02.424Z,3.07
2022-09-05T15:45:35.456Z,2.87
2022-09-05T15:48:16.109Z,2.93
2022-09-05T15:51:02.582Z,2.60
2022-09-05T15:53:36.485Z,2.50
2022-09-05T15:56:12.476Z,2.57
2022-09-05T15:58:53.406Z,2.60
2022-09-05T16:01:58.632Z,2.43
2022-09-05T16:10:26.858Z,2.67
2022-09-05T16:10:34.369Z,2.50
2022-09-05T16:10:48.476Z,3.87
2022-09-05T16:13:02.445Z,2.50
2022-09-05T16:22:13.989Z,2.10
2022-09-05T16:23:20.280Z,2.70
2022-09-05T16:23:24.775Z,2.70
2022-09-05T16:24:38.599Z,2.53
2022-09-05T16:27:18.438Z,2.40
2022-09-05T16:29:47.986Z,2.40
2022-09-05T16:32:18.369Z,2.00
2022-09-05T16:34:54.821Z,2.20
2022-09-05T16:37:38.878Z,2.47
2022-09-05T16:40:15.359Z,2.20
2022-09-05T16:42:54.436Z,2.60
2022-09-05T16:45:27.267Z,2.67
2022-09-05T16:48:18.518Z,2.37
2022-09-05T16:51:13.349Z,2.70
2022-09-05T16:54:30.845Z,2.80
2022-09-05T16:56:58.683Z,2.53
2022-09-05T16:59:29.813Z,3.00
2022-09-05T17:02:14.786Z,2.70
2022-09-05T17:05:06.336Z,2.63
2022-09-05T17:07:50.740Z,2.60
2022-09-05T17:10:25.612Z,2.60
2022-09-05T17:12:56.181Z,2.40
2022-09-05T17:15:39.267Z,2.70
2022-09-05T17:18:25.267Z,2.70
2022-09-05T17:20:59.357Z,2.90
2022-09-05T17:27:42.824Z,2.53
2022-09-05T17:29:36.535Z,2.30
2022-09-05T17:32:38.911Z,3.10
2022-09-05T17:35:30.162Z,2.90
2022-09-05T17:38:17.422Z,2.80
2022-09-05T17:41:01.731Z,3.23
2022-09-05T17:43:38.589Z,2.63
2022-09-05T17:46:26.080Z,3.10
2022-09-05T17:49:14.758Z,2.63
2022-09-05T17:51:50.863Z,2.40
2022-09-05T17:54:29.780Z,3.30
2022-09-05T17:57:16.699Z,2.63
2022-09-05T17:59:43.565Z,2.87
2022-09-05T18:02:31.130Z,2.70
2022-09-05T18:04:58.435Z,2.60
2022-09-05T18:07:25.528Z,3.70
2022-09-05T18:15:38.352Z,3.40
2022-09-05T18:18:18.446Z,2.60
2022-09-05T18:21:14.658Z,2.67
2022-09-05T18:23:54.272Z,3.40
2022-09-05T18:26:25.338Z,3.50
2022-09-05T18:29:05.819Z,2.70
2022-09-05T18:31:41.204Z,2.83
2022-09-05T18:34:21.254Z,2.30
2022-09-05T18:36:56.063Z,2.57
2022-09-05T18:39:26.064Z,2.50
2022-09-05T18:42:14.790Z,2.93
2022-09-05T18:44:59.504Z,2.53
2022-09-05T18:47:33.013Z,2.57
2022-09-05T18:50:26.116Z,2.90
2022-09-05T18:53:08.836Z,2.87
2022-09-05T18:56:11.024Z,3.30
2022-09-05T18:58:52.063Z,2.73
2022-09-05T19:01:52.851Z,2.90
2022-09-05T19:04:46.349Z,3.40
2022-09-05T19:07:22.381Z,3.03
2022-09-05T19:10:34.301Z,2.90
2022-09-05T19:13:17.247Z,2.90
2022-09-05T19:16:21.070Z,2.70
2022-09-05T19:19:24.413Z,2.50
2022-09-05T19:22:31.983Z,2.70
2022-09-05T19:24:44.859Z,3.00
2022-09-05T19:29:15.619Z,2.87
2022-09-05T19:36:57.981Z,2.67
2022-09-05T19:37:02.460Z,2.50
2022-09-05T19:37:06.389Z,2.57
2022-09-05T19:38:34.185Z,2.53
2022-09-05T19:47:26.477Z,2.70
2022-09-05T19:47:33.998Z,3.20
2022-09-05T19:47:35.920Z,2.37
2022-09-05T19:50:05.626Z,2.10
2022-09-05T19:52:33.690Z,2.90
2022-09-05T19:55:23.555Z,2.67
2022-09-05T19:58:18.537Z,2.40
2022-09-05T20:00:45.956Z,2.90
2022-09-05T20:03:28.073Z,2.57
2022-09-05T20:05:59.070Z,2.67
2022-09-05T20:08:35.484Z,2.60
2022-09-05T20:11:07.531Z,2.50
2022-09-05T20:13:34.403Z,2.90
2022-09-05T20:16:01.983Z,2.30
2022-09-05T20:18:44.997Z,2.83
2022-09-05T20:21:22.150Z,2.50
2022-09-05T20:23:54.026Z,2.43
2022-09-05T20:26:28.149Z,2.40
2022-09-05T20:29:04.980Z,2.70
2022-09-05T20:31:36.775Z,2.83
2022-09-05T20:34:22.617Z,2.20
2022-09-05T20:43:10.656Z,2.37
2022-09-05T20:43:21.188Z,3.37
2022-09-05T20:43:24.179Z,2.27
2022-09-05T20:46:24.264Z,2.10
2022-09-05T20:54:16.036Z,2.03
2022-09-05T20:54:24.888Z,2.83
2022-09-05T20:54:39.393Z,2.37
2022-09-05T20:57:17.528Z,2.30
2022-09-05T20:59:47.146Z,2.10
2022-09-05T21:02:27.418Z,2.67
2022-09-05T21:05:06.864Z,2.30
2022-09-05T21:08:01.139Z,2.23
2022-09-05T21:10:55.963Z,2.00
2022-09-05T21:13:27.318Z,1.97
2022-09-05T21:15:55.758Z,2.03
2022-09-05T21:18:33.018Z,2.03
2022-09-05T21:21:08.952Z,2.83
2022-09-05T21:24:16.324Z,1.83
2022-09-05T21:26:49.777Z,1.70
2022-09-05T21:29:32.222Z,2.53
2022-09-05T21:32:10.587Z,2.07
2022-09-05T21:34:48.962Z,1.77
2022-09-05T21:37:17.125Z,1.97
2022-09-05T21:39:59.935Z,1.63
2022-09-05T21:47:01.500Z,1.80
2022-09-05T21:47:48.364Z,2.00
2022-09-05T21:48:15.085Z,2.00
2022-09-05T21:50:52.097Z,1.63
2022-09-05T21:59:16.681Z,1.73
2022-09-05T21:59:21.371Z,1.50
2022-09-05T21:59:46.657Z,1.97
2022-09-05T22:02:16.877Z,1.70
2022-09-05T22:04:44.089Z,1.40
2022-09-05T22:07:31.932Z,1.73
2022-09-05T22:09:59.618Z,1.13
2022-09-05T22:12:31.314Z,1.87
2022-09-05T22:15:26.741Z,1.37
2022-09-05T22:17:53.630Z,1.30
2022-09-05T22:20:23.342Z,1.30
2022-09-05T22:22:56.824Z,1.60
2022-09-05T22:25:32.076Z,1.20
2022-09-05T22:28:12.810Z,1.57
2022-09-05T22:30:42.379Z,1.37
2022-09-05T22:33:14.172Z,1.50
2022-09-05T22:35:41.672Z,1.77
2022-09-05T22:38:16.402Z,1.50
2022-09-05T22:40:46.408Z,1.13
2022-09-05T22:43:15.007Z,1.70
2022-09-05T22:45:42.050Z,1.73
2022-09-05T22:48:11.049Z,1.50
2022-09-05T22:50:38.253Z,1.30
2022-09-05T22:53:09.712Z,1.50
2022-09-05T22:55:38.700Z,1.03
2022-09-05T22:58:09.818Z,1.30
2022-09-05T23:00:37.195Z,1.37
2022-09-05T23:03:06.188Z,1.23
2022-09-05T23:05:33.629Z,1.80
2022-09-05T23:08:04.098Z,1.20
2022-09-05T23:10:34.315Z,1.50
2022-09-05T23:13:04.648Z,1.40
2022-09-05T23:15:31.452Z,1.10
2022-09-05T23:17:59.663Z,1.17
2022-09-05T23:20:29.317Z,1.20
2022-09-05T23:22:56.810Z,1.53
2022-09-05T23:25:27.116Z,1.30
2022-09-05T23:27:56.122Z,1.10
2022-09-05T23:30:22.970Z,1.07
2022-09-05T23:32:51.357Z,1.10
2022-09-05T23:35:21.354Z,1.00
2022-09-05T23:37:50.771Z,1.33
2022-09-05T23:40:23.499Z,1.40
2022-09-05T23:42:57.670Z,1.10
2022-09-05T23:45:25.910Z,1.43
2022-09-05T23:47:56.483Z,1.10
2022-09-05T23:50:23.641Z,0.90
2022-09-05T23:52:50.769Z,1.17
2022-09-05T23:55:19.656Z,1.10
2022-09-05T23:57:49.091Z,1.10
